sensor_id;sensor_type;location;lat;lon;timestamp;pressure;altitude;pressure_sealevel;temperature;humidity
35918;BME280;22011;59.912;30.300;2023-10-09T00:01:50;100339.44;;;5.51;70.85
35918;BME280;22011;59.912;30.300;2023-10-09T00:04:17;100336.41;;;5.46;70.96
35918;BME280;22011;59.912;30.300;2023-10-09T00:06:46;100345.31;;;5.45;70.81
35918;BME280;22011;59.912;30.300;2023-10-09T00:09:15;100340.31;;;5.42;71.21
35918;BME280;22011;59.912;30.300;2023-10-09T00:11:57;100343.22;;;5.39;71.11
35918;BME280;22011;59.912;30.300;2023-10-09T00:14:29;100349.44;;;5.67;72.00
35918;BME280;22011;59.912;30.300;2023-10-09T00:16:59;100347.25;;;5.43;71.39
35918;BME280;22011;59.912;30.300;2023-10-09T00:19:35;100345.88;;;5.39;71.30
35918;BME280;22011;59.912;30.300;2023-10-09T00:22:03;100349.22;;;5.41;71.65
35918;BME280;22011;59.912;30.300;2023-10-09T00:24:36;100356.16;;;5.42;71.45
35918;BME280;22011;59.912;30.300;2023-10-09T00:27:11;100348.09;;;5.44;71.44
35918;BME280;22011;59.912;30.300;2023-10-09T00:29:40;100353.94;;;5.47;71.35
35918;BME280;22011;59.912;30.300;2023-10-09T00:32:11;100349.75;;;5.45;71.55
35918;BME280;22011;59.912;30.300;2023-10-09T00:34:49;100354.91;;;5.46;71.22
35918;BME280;22011;59.912;30.300;2023-10-09T00:37:17;100353.22;;;5.45;71.32
35918;BME280;22011;59.912;30.300;2023-10-09T00:39:49;100355.88;;;5.45;71.43
35918;BME280;22011;59.912;30.300;2023-10-09T00:42:22;100358.38;;;5.47;70.93
35918;BME280;22011;59.912;30.300;2023-10-09T00:44:57;100366.16;;;5.48;71.36
35918;BME280;22011;59.912;30.300;2023-10-09T00:47:29;100373.09;;;5.49;70.80
35918;BME280;22011;59.912;30.300;2023-10-09T00:50:03;100362.66;;;5.57;70.64
35918;BME280;22011;59.912;30.300;2023-10-09T00:52:38;100362.53;;;5.59;70.71
35918;BME280;22011;59.912;30.300;2023-10-09T00:55:10;100369.63;;;5.58;69.87
35918;BME280;22011;59.912;30.300;2023-10-09T00:57:42;100358.06;;;5.59;70.43
35918;BME280;22011;59.912;30.300;2023-10-09T01:00:18;100373.94;;;5.59;70.37
35918;BME280;22011;59.912;30.300;2023-10-09T01:02:59;100374.63;;;5.62;70.81
35918;BME280;22011;59.912;30.300;2023-10-09T01:05:40;100376.28;;;5.63;69.28
35918;BME280;22011;59.912;30.300;2023-10-09T01:08:19;100368.34;;;5.63;69.50
35918;BME280;22011;59.912;30.300;2023-10-09T01:10:55;100379.50;;;5.56;69.45
35918;BME280;22011;59.912;30.300;2023-10-09T01:13:25;100379.78;;;5.53;70.04
35918;BME280;22011;59.912;30.300;2023-10-09T01:16:07;100383.53;;;5.61;70.13
35918;BME280;22011;59.912;30.300;2023-10-09T01:18:40;100381.72;;;5.61;69.47
35918;BME280;22011;59.912;30.300;2023-10-09T01:21:08;100383.94;;;5.66;69.40
35918;BME280;22011;59.912;30.300;2023-10-09T01:23:41;100381.69;;;5.71;69.20
35918;BME280;22011;59.912;30.300;2023-10-09T01:26:13;100386.97;;;5.71;68.99
35918;BME280;22011;59.912;30.300;2023-10-09T01:28:42;100385.31;;;5.70;69.27
35918;BME280;22011;59.912;30.300;2023-10-09T01:31:09;100394.34;;;5.67;69.25
35918;BME280;22011;59.912;30.300;2023-10-09T01:33:37;100395.34;;;5.66;68.57
35918;BME280;22011;59.912;30.300;2023-10-09T01:36:05;100394.50;;;5.66;68.83
35918;BME280;22011;59.912;30.300;2023-10-09T01:38:36;100402.44;;;5.66;69.02
35918;BME280;22011;59.912;30.300;2023-10-09T01:41:12;100406.75;;;5.67;69.38
35918;BME280;22011;59.912;30.300;2023-10-09T01:43:45;100398.13;;;5.55;69.28
35918;BME280;22011;59.912;30.300;2023-10-09T01:46:17;100392.31;;;5.51;69.68
35918;BME280;22011;59.912;30.300;2023-10-09T01:48:46;100401.75;;;5.54;69.85
35918;BME280;22011;59.912;30.300;2023-10-09T01:51:14;100400.09;;;5.53;70.00
35918;BME280;22011;59.912;30.300;2023-10-09T01:53:43;100404.25;;;5.55;69.92
35918;BME280;22011;59.912;30.300;2023-10-09T01:56:15;100401.00;;;5.81;70.73
35918;BME280;22011;59.912;30.300;2023-10-09T01:58:42;100391.72;;;5.57;69.93
35918;BME280;22011;59.912;30.300;2023-10-09T02:01:13;100403.84;;;5.50;69.60
35918;BME280;22011;59.912;30.300;2023-10-09T02:03:42;100407.59;;;5.48;69.95
35918;BME280;22011;59.912;30.300;2023-10-09T02:06:10;100411.78;;;5.50;69.95
35918;BME280;22011;59.912;30.300;2023-10-09T02:08:55;100400.91;;;5.53;69.86
35918;BME280;22011;59.912;30.300;2023-10-09T02:11:25;100403.97;;;5.58;69.75
35918;BME280;22011;59.912;30.300;2023-10-09T02:14:03;100397.72;;;5.59;69.92
35918;BME280;22011;59.912;30.300;2023-10-09T02:16:48;100409.25;;;5.58;69.94
35918;BME280;22011;59.912;30.300;2023-10-09T02:19:30;100411.63;;;5.62;70.01
35918;BME280;22011;59.912;30.300;2023-10-09T02:22:01;100405.50;;;5.61;70.22
35918;BME280;22011;59.912;30.300;2023-10-09T02:24:39;100407.03;;;5.64;69.98
35918;BME280;22011;59.912;30.300;2023-10-09T02:27:25;100408.66;;;5.74;69.58
35918;BME280;22011;59.912;30.300;2023-10-09T02:30:19;100412.56;;;5.80;68.81
35918;BME280;22011;59.912;30.300;2023-10-09T02:32:53;100405.59;;;5.79;68.99
35918;BME280;22011;59.912;30.300;2023-10-09T02:35:33;100414.22;;;5.81;69.70
35918;BME280;22011;59.912;30.300;2023-10-09T02:38:04;100413.97;;;5.65;68.66
35918;BME280;22011;59.912;30.300;2023-10-09T02:40:36;100417.44;;;5.65;69.86
35918;BME280;22011;59.912;30.300;2023-10-09T02:43:20;100413.00;;;5.66;69.79
35918;BME280;22011;59.912;30.300;2023-10-09T02:45:51;100412.59;;;5.61;68.92
35918;BME280;22011;59.912;30.300;2023-10-09T02:48:19;100412.16;;;5.65;69.85
35918;BME280;22011;59.912;30.300;2023-10-09T02:50:50;100412.59;;;5.61;69.33
35918;BME280;22011;59.912;30.300;2023-10-09T02:53:18;100411.63;;;5.62;69.54
35918;BME280;22011;59.912;30.300;2023-10-09T02:55:55;100412.59;;;5.61;69.53
35918;BME280;22011;59.912;30.300;2023-10-09T02:58:40;100413.69;;;5.68;69.90
35918;BME280;22011;59.912;30.300;2023-10-09T03:01:12;100422.59;;;5.67;69.69
35918;BME280;22011;59.912;30.300;2023-10-09T03:03:40;100427.88;;;5.67;69.23
35918;BME280;22011;59.912;30.300;2023-10-09T03:06:11;100422.59;;;5.67;69.73
35918;BME280;22011;59.912;30.300;2023-10-09T03:08:40;100419.41;;;5.63;69.59
35918;BME280;22011;59.912;30.300;2023-10-09T03:11:08;100429.56;;;5.68;69.71
35918;BME280;22011;59.912;30.300;2023-10-09T03:13:44;100416.75;;;5.73;70.04
35918;BME280;22011;59.912;30.300;2023-10-09T03:16:11;100423.72;;;5.64;69.19
35918;BME280;22011;59.912;30.300;2023-10-09T03:18:42;100422.59;;;5.67;69.78
35918;BME280;22011;59.912;30.300;2023-10-09T03:21:10;100420.78;;;5.67;69.45
35918;BME280;22011;59.912;30.300;2023-10-09T03:23:37;100421.91;;;5.65;69.68
35918;BME280;22011;59.912;30.300;2023-10-09T03:26:05;100432.47;;;5.65;69.54
35918;BME280;22011;59.912;30.300;2023-10-09T03:28:34;100436.78;;;5.66;69.89
35918;BME280;22011;59.912;30.300;2023-10-09T03:31:03;100433.16;;;5.67;69.89
35918;BME280;22011;59.912;30.300;2023-10-09T03:33:33;100435.13;;;5.65;69.97
35918;BME280;22011;59.912;30.300;2023-10-09T03:36:02;100437.63;;;5.66;69.42
35918;BME280;22011;59.912;30.300;2023-10-09T03:38:33;100439.16;;;5.69;69.48
35918;BME280;22011;59.912;30.300;2023-10-09T03:41:02;100427.88;;;5.67;69.54
35918;BME280;22011;59.912;30.300;2023-10-09T03:43:33;100432.63;;;5.63;68.70
35918;BME280;22011;59.912;30.300;2023-10-09T03:46:08;100424.25;;;5.68;69.56
35918;BME280;22011;59.912;30.300;2023-10-09T03:49:06;100425.22;;;5.76;69.89
35918;BME280;22011;59.912;30.300;2023-10-09T03:51:37;100423.56;;;5.66;69.26
35918;BME280;22011;59.912;30.300;2023-10-09T03:54:05;100432.19;;;5.68;68.99
35918;BME280;22011;59.912;30.300;2023-10-09T03:56:34;100429.28;;;5.71;69.39
35918;BME280;22011;59.912;30.300;2023-10-09T03:59:02;100435.09;;;5.74;68.58
35918;BME280;22011;59.912;30.300;2023-10-09T04:01:32;100427.03;;;5.76;68.47
35918;BME280;22011;59.912;30.300;2023-10-09T04:04:06;100427.06;;;5.66;68.72
35918;BME280;22011;59.912;30.300;2023-10-09T04:06:36;100423.72;;;5.64;68.97
35918;BME280;22011;59.912;30.300;2023-10-09T04:09:07;100432.88;;;5.70;69.41
35918;BME280;22011;59.912;30.300;2023-10-09T04:11:54;100430.78;;;5.73;69.33
35918;BME280;22011;59.912;30.300;2023-10-09T04:14:44;100434.81;;;5.77;68.97
35918;BME280;22011;59.912;30.300;2023-10-09T04:17:18;100440.25;;;5.76;68.97
35918;BME280;22011;59.912;30.300;2023-10-09T04:20:02;100435.09;;;5.74;69.55
35918;BME280;22011;59.912;30.300;2023-10-09T04:22:47;100432.59;;;5.73;69.35
35918;BME280;22011;59.912;30.300;2023-10-09T04:25:17;100439.00;;;5.70;68.41
35918;BME280;22011;59.912;30.300;2023-10-09T04:27:53;100430.66;;;5.75;67.77
35918;BME280;22011;59.912;30.300;2023-10-09T04:30:19;100435.66;;;5.78;68.10
35918;BME280;22011;59.912;30.300;2023-10-09T04:32:51;100437.31;;;5.79;68.25
35918;BME280;22011;59.912;30.300;2023-10-09T04:35:21;100439.56;;;5.74;68.10
35918;BME280;22011;59.912;30.300;2023-10-09T04:37:50;100447.09;;;5.69;68.65
35918;BME280;22011;59.912;30.300;2023-10-09T04:40:29;100453.75;;;5.73;68.33
35918;BME280;22011;59.912;30.300;2023-10-09T04:43:14;100453.75;;;5.73;68.20
35918;BME280;22011;59.912;30.300;2023-10-09T04:45:46;100449.16;;;5.65;68.07
35918;BME280;22011;59.912;30.300;2023-10-09T04:48:41;100447.91;;;5.69;68.16
35918;BME280;22011;59.912;30.300;2023-10-09T04:51:14;100455.13;;;5.77;68.30
35918;BME280;22011;59.912;30.300;2023-10-09T04:53:47;100446.94;;;5.70;67.89
35918;BME280;22011;59.912;30.300;2023-10-09T04:56:21;100447.22;;;5.77;68.20
35918;BME280;22011;59.912;30.300;2023-10-09T04:58:50;100451.94;;;5.83;67.39
35918;BME280;22011;59.912;30.300;2023-10-09T05:01:30;100452.63;;;5.85;66.82
35918;BME280;22011;59.912;30.300;2023-10-09T05:04:05;100455.13;;;5.86;67.73
35918;BME280;22011;59.912;30.300;2023-10-09T05:06:53;100469.91;;;5.89;68.04
35918;BME280;22011;59.912;30.300;2023-10-09T05:09:24;100457.63;;;5.88;66.71
35918;BME280;22011;59.912;30.300;2023-10-09T05:11:53;100458.34;;;5.90;67.51
35918;BME280;22011;59.912;30.300;2023-10-09T05:14:35;100463.22;;;5.95;66.83
35918;BME280;22011;59.912;30.300;2023-10-09T05:17:06;100470.72;;;5.99;66.64
35918;BME280;22011;59.912;30.300;2023-10-09T05:19:36;100464.59;;;5.99;66.78
35918;BME280;22011;59.912;30.300;2023-10-09T05:22:21;100465.72;;;5.96;65.87
35918;BME280;22011;59.912;30.300;2023-10-09T05:25:03;100465.56;;;5.98;66.25
35918;BME280;22011;59.912;30.300;2023-10-09T05:27:42;100465.56;;;5.98;65.65
35918;BME280;22011;59.912;30.300;2023-10-09T05:30:12;100458.75;;;5.95;66.22
35918;BME280;22011;59.912;30.300;2023-10-09T05:32:53;100467.38;;;5.97;66.79
35918;BME280;22011;59.912;30.300;2023-10-09T05:35:26;100466.81;;;5.94;66.37
35918;BME280;22011;59.912;30.300;2023-10-09T05:38:10;100477.38;;;5.84;65.94
35918;BME280;22011;59.912;30.300;2023-10-09T05:40:50;100468.19;;;5.88;66.45
35918;BME280;22011;59.912;30.300;2023-10-09T05:43:20;100482.63;;;6.22;67.05
35918;BME280;22011;59.912;30.300;2023-10-09T05:46:05;100472.38;;;6.00;66.04
35918;BME280;22011;59.912;30.300;2023-10-09T05:48:35;100477.72;;;6.28;66.62
35918;BME280;22011;59.912;30.300;2023-10-09T05:51:22;100472.81;;;5.96;65.80
35918;BME280;22011;59.912;30.300;2023-10-09T05:54:07;100477.38;;;5.84;65.73
35918;BME280;22011;59.912;30.300;2023-10-09T05:57:07;100480.19;;;5.82;65.61
35918;BME280;22011;59.912;30.300;2023-10-09T05:59:51;100483.78;;;5.81;66.07
35918;BME280;22011;59.912;30.300;2023-10-09T06:02:37;100487.16;;;5.74;65.97
35918;BME280;22011;59.912;30.300;2023-10-09T06:05:20;100480.75;;;5.76;66.77
35918;BME280;22011;59.912;30.300;2023-10-09T06:08:03;100489.09;;;5.72;66.03
35918;BME280;22011;59.912;30.300;2023-10-09T06:10:34;100488.25;;;5.62;65.66
35918;BME280;22011;59.912;30.300;2023-10-09T06:13:08;100498.84;;;5.62;65.85
35918;BME280;22011;59.912;30.300;2023-10-09T06:16:03;100485.47;;;5.53;65.45
35918;BME280;22011;59.912;30.300;2023-10-09T06:18:46;100500.78;;;5.59;65.98
35918;BME280;22011;59.912;30.300;2023-10-09T06:21:34;100491.59;;;5.64;65.96
35918;BME280;22011;59.912;30.300;2023-10-09T06:24:28;100491.31;;;5.67;65.65
35918;BME280;22011;59.912;30.300;2023-10-09T06:27:07;100492.84;;;5.59;65.69
35918;BME280;22011;59.912;30.300;2023-10-09T06:29:40;100497.72;;;5.54;65.48
35918;BME280;22011;59.912;30.300;2023-10-09T06:32:24;100492.44;;;5.54;66.30
35918;BME280;22011;59.912;30.300;2023-10-09T06:35:05;100498.84;;;5.62;66.47
35918;BME280;22011;59.912;30.300;2023-10-09T06:37:45;100490.47;;;5.95;66.65
35918;BME280;22011;59.912;30.300;2023-10-09T06:40:33;100506.47;;;5.74;67.04
35918;BME280;22011;59.912;30.300;2023-10-09T06:43:14;100502.16;;;5.64;65.70
35918;BME280;22011;59.912;30.300;2023-10-09T06:45:44;100496.19;;;5.62;66.23
35918;BME280;22011;59.912;30.300;2023-10-09T06:48:12;100507.59;;;5.62;65.42
35918;BME280;22011;59.912;30.300;2023-10-09T06:50:57;100497.59;;;5.66;65.72
35918;BME280;22011;59.912;30.300;2023-10-09T06:53:30;100495.63;;;5.77;64.90
35918;BME280;22011;59.912;30.300;2023-10-09T06:56:13;100498.00;;;5.80;64.93
35918;BME280;22011;59.912;30.300;2023-10-09T06:58:49;100499.94;;;5.78;65.28
35918;BME280;22011;59.912;30.300;2023-10-09T07:01:16;100496.88;;;5.83;65.11
35918;BME280;22011;59.912;30.300;2023-10-09T07:04:09;100499.94;;;5.88;64.33
35918;BME280;22011;59.912;30.300;2023-10-09T07:06:45;100495.38;;;5.90;64.33
35918;BME280;22011;59.912;30.300;2023-10-09T07:09:17;100492.28;;;5.85;63.65
35918;BME280;22011;59.912;30.300;2023-10-09T07:11:48;100499.81;;;5.89;64.46
35918;BME280;22011;59.912;30.300;2023-10-09T07:14:29;100503.00;;;5.93;63.58
35918;BME280;22011;59.912;30.300;2023-10-09T07:17:27;100498.25;;;6.06;63.49
35918;BME280;22011;59.912;30.300;2023-10-09T07:20:10;100504.63;;;6.23;62.92
35918;BME280;22011;59.912;30.300;2023-10-09T07:22:40;100506.53;;;6.31;63.33
35918;BME280;22011;59.912;30.300;2023-10-09T07:25:20;100509.56;;;6.36;62.98
35918;BME280;22011;59.912;30.300;2023-10-09T07:28:11;100515.97;;;6.43;62.82
35918;BME280;22011;59.912;30.300;2023-10-09T07:31:02;100512.63;;;6.41;63.21
35918;BME280;22011;59.912;30.300;2023-10-09T07:33:30;100510.22;;;6.47;62.22
35918;BME280;22011;59.912;30.300;2023-10-09T07:36:17;100510.09;;;6.49;62.13
35918;BME280;22011;59.912;30.300;2023-10-09T07:38:56;100519.44;;;6.43;61.56
35918;BME280;22011;59.912;30.300;2023-10-09T07:41:31;100516.81;;;6.71;62.35
35918;BME280;22011;59.912;30.300;2023-10-09T07:44:11;100523.78;;;6.35;60.76
35918;BME280;22011;59.912;30.300;2023-10-09T07:47:03;100518.50;;;6.35;61.56
35918;BME280;22011;59.912;30.300;2023-10-09T07:49:51;100521.66;;;6.48;62.51
35918;BME280;22011;59.912;30.300;2023-10-09T07:52:20;100519.00;;;6.48;61.69
35918;BME280;22011;59.912;30.300;2023-10-09T07:54:52;100537.38;;;6.49;61.52
35918;BME280;22011;59.912;30.300;2023-10-09T07:57:29;100525.28;;;6.47;61.79
35918;BME280;22011;59.912;30.300;2023-10-09T08:00:07;100531.09;;;6.60;62.01
35918;BME280;22011;59.912;30.300;2023-10-09T08:02:54;100531.78;;;6.62;60.81
35918;BME280;22011;59.912;30.300;2023-10-09T08:05:26;100536.19;;;6.71;60.59
35918;BME280;22011;59.912;30.300;2023-10-09T08:08:00;100533.25;;;6.74;60.76
35918;BME280;22011;59.912;30.300;2023-10-09T08:10:52;100538.56;;;6.74;59.97
35918;BME280;22011;59.912;30.300;2023-10-09T08:13:34;100533.84;;;6.68;59.19
35918;BME280;22011;59.912;30.300;2023-10-09T08:16:24;100544.13;;;6.71;60.56
35918;BME280;22011;59.912;30.300;2023-10-09T08:19:03;100542.47;;;6.70;60.08
35918;BME280;22011;59.912;30.300;2023-10-09T08:21:54;100543.56;;;6.77;61.49
35918;BME280;22011;59.912;30.300;2023-10-09T08:24:43;100547.25;;;6.94;59.06
35918;BME280;22011;59.912;30.300;2023-10-09T08:27:18;100532.88;;;6.97;58.95
35918;BME280;22011;59.912;30.300;2023-10-09T08:30:05;100551.50;;;7.05;60.19
35918;BME280;22011;59.912;30.300;2023-10-09T08:32:40;100543.28;;;7.08;60.48
35918;BME280;22011;59.912;30.300;2023-10-09T08:35:09;100559.00;;;7.09;60.31
35918;BME280;22011;59.912;30.300;2023-10-09T08:37:56;100553.09;;;6.98;58.61
35918;BME280;22011;59.912;30.300;2023-10-09T08:40:30;100551.66;;;7.03;59.22
35918;BME280;22011;59.912;30.300;2023-10-09T08:43:08;100555.53;;;7.09;59.16
35918;BME280;22011;59.912;30.300;2023-10-09T08:45:38;100563.09;;;7.04;59.82
35918;BME280;22011;59.912;30.300;2023-10-09T08:48:12;100553.47;;;7.03;59.00
35918;BME280;22011;59.912;30.300;2023-10-09T08:50:42;100562.56;;;7.00;58.87
35918;BME280;22011;59.912;30.300;2023-10-09T08:53:10;100548.63;;;6.98;60.44
35918;BME280;22011;59.912;30.300;2023-10-09T08:55:39;100558.09;;;7.01;60.66
35918;BME280;22011;59.912;30.300;2023-10-09T08:58:07;100562.78;;;7.07;60.44
35918;BME280;22011;59.912;30.300;2023-10-09T09:00:44;100553.88;;;7.08;59.45
35918;BME280;22011;59.912;30.300;2023-10-09T09:03:15;100561.22;;;7.14;59.12
35918;BME280;22011;59.912;30.300;2023-10-09T09:05:46;100555.63;;;7.17;60.07
35918;BME280;22011;59.912;30.300;2023-10-09T09:08:23;100567.00;;;7.27;60.23
35918;BME280;22011;59.912;30.300;2023-10-09T09:10:56;100560.69;;;7.28;59.07
35918;BME280;22011;59.912;30.300;2023-10-09T09:13:39;100569.28;;;7.22;58.08
35918;BME280;22011;59.912;30.300;2023-10-09T09:16:17;100565.69;;;7.31;58.54
35918;BME280;22011;59.912;30.300;2023-10-09T09:18:53;100576.28;;;7.31;58.05
35918;BME280;22011;59.912;30.300;2023-10-09T09:21:31;100571.53;;;7.17;57.24
35918;BME280;22011;59.912;30.300;2023-10-09T09:24:05;100576.81;;;7.17;57.82
35918;BME280;22011;59.912;30.300;2023-10-09T09:26:43;100575.00;;;7.17;58.51
35918;BME280;22011;59.912;30.300;2023-10-09T09:29:14;100574.75;;;7.11;58.67
35918;BME280;22011;59.912;30.300;2023-10-09T09:31:53;100576.78;;;7.44;59.32
35918;BME280;22011;59.912;30.300;2023-10-09T09:34:22;100586.44;;;7.18;58.49
35918;BME280;22011;59.912;30.300;2023-10-09T09:36:56;100583.00;;;7.08;58.35
35918;BME280;22011;59.912;30.300;2023-10-09T09:39:26;100589.00;;;7.10;58.85
35918;BME280;22011;59.912;30.300;2023-10-09T09:41:55;100581.19;;;7.08;59.18
35918;BME280;22011;59.912;30.300;2023-10-09T09:44:31;100582.19;;;7.07;58.83
35918;BME280;22011;59.912;30.300;2023-10-09T09:47:00;100595.97;;;7.11;58.42
35918;BME280;22011;59.912;30.300;2023-10-09T09:49:34;100592.19;;;7.13;58.26
35918;BME280;22011;59.912;30.300;2023-10-09T09:52:05;100586.88;;;7.13;57.47
35918;BME280;22011;59.912;30.300;2023-10-09T09:54:37;100585.59;;;7.17;58.24
35918;BME280;22011;59.912;30.300;2023-10-09T09:57:07;100586.44;;;7.18;58.03
35918;BME280;22011;59.912;30.300;2023-10-09T09:59:38;100589.38;;;7.15;58.63
35918;BME280;22011;59.912;30.300;2023-10-09T10:02:24;100589.94;;;7.18;58.43
35918;BME280;22011;59.912;30.300;2023-10-09T10:04:58;100585.59;;;7.17;58.42
35918;BME280;22011;59.912;30.300;2023-10-09T10:07:31;100584.88;;;7.25;57.87
35918;BME280;22011;59.912;30.300;2023-10-09T10:10:34;100581.78;;;7.47;59.47
35918;BME280;22011;59.912;30.300;2023-10-09T10:13:03;100578.66;;;7.34;58.68
35918;BME280;22011;59.912;30.300;2023-10-09T10:16:05;100583.16;;;7.51;58.79
35918;BME280;22011;59.912;30.300;2023-10-09T10:18:56;100583.75;;;7.45;58.77
35918;BME280;22011;59.912;30.300;2023-10-09T10:21:34;100579.56;;;7.25;57.86
35918;BME280;22011;59.912;30.300;2023-10-09T10:24:41;100586.94;;;7.49;58.35
35918;BME280;22011;59.912;30.300;2023-10-09T10:27:25;100589.25;;;7.34;56.96
35918;BME280;22011;59.912;30.300;2023-10-09T10:30:27;100590.19;;;7.61;58.00
35918;BME280;22011;59.912;30.300;2023-10-09T10:33:01;100591.31;;;7.40;56.94
35918;BME280;22011;59.912;30.300;2023-10-09T10:35:42;100583.66;;;7.37;57.64
35918;BME280;22011;59.912;30.300;2023-10-09T10:38:29;100585.94;;;7.50;56.99
35918;BME280;22011;59.912;30.300;2023-10-09T10:41:16;100587.00;;;7.57;58.17
35918;BME280;22011;59.912;30.300;2023-10-09T10:43:44;100590.63;;;7.38;56.87
35918;BME280;22011;59.912;30.300;2023-10-09T10:46:21;100594.56;;;7.34;56.96
35918;BME280;22011;59.912;30.300;2023-10-09T10:48:59;100586.31;;;7.37;56.92
35918;BME280;22011;59.912;30.300;2023-10-09T10:51:41;100588.72;;;7.31;56.18
35918;BME280;22011;59.912;30.300;2023-10-09T10:54:22;100596.00;;;7.46;57.14
35918;BME280;22011;59.912;30.300;2023-10-09T10:57:16;100594.19;;;7.47;57.36
35918;BME280;22011;59.912;30.300;2023-10-09T10:59:56;100590.22;;;7.33;56.35
35918;BME280;22011;59.912;30.300;2023-10-09T11:02:42;100593.88;;;7.32;56.33
35918;BME280;22011;59.912;30.300;2023-10-09T11:05:14;100595.97;;;7.29;55.41
35918;BME280;22011;59.912;30.300;2023-10-09T11:07:57;100591.00;;;7.43;55.85
35918;BME280;22011;59.912;30.300;2023-10-09T11:10:28;100591.59;;;7.37;56.04
35918;BME280;22011;59.912;30.300;2023-10-09T11:12:58;100582.53;;;7.40;56.18
35918;BME280;22011;59.912;30.300;2023-10-09T11:15:42;100588.38;;;7.43;55.29
35918;BME280;22011;59.912;30.300;2023-10-09T11:18:13;100585.13;;;7.49;56.32
35918;BME280;22011;59.912;30.300;2023-10-09T11:20:48;100593.84;;;7.60;55.74
35918;BME280;22011;59.912;30.300;2023-10-09T11:23:46;100582.34;;;7.86;56.17
35918;BME280;22011;59.912;30.300;2023-10-09T11:26:26;100593.66;;;7.43;55.43
35918;BME280;22011;59.912;30.300;2023-10-09T11:29:09;100602.00;;;7.48;56.33
35918;BME280;22011;59.912;30.300;2023-10-09T11:31:57;100597.44;;;7.41;56.11
35918;BME280;22011;59.912;30.300;2023-10-09T11:34:23;100601.06;;;7.22;55.23
35918;BME280;22011;59.912;30.300;2023-10-09T11:36:59;100606.97;;;7.34;54.40
35918;BME280;22011;59.912;30.300;2023-10-09T11:39:28;100599.72;;;7.36;55.08
35918;BME280;22011;59.912;30.300;2023-10-09T11:42:06;100606.38;;;7.40;56.18
35918;BME280;22011;59.912;30.300;2023-10-09T11:44:40;100602.44;;;7.44;57.45
35918;BME280;22011;59.912;30.300;2023-10-09T11:47:11;100601.13;;;7.30;56.06
35918;BME280;22011;59.912;30.300;2023-10-09T11:49:52;100604.75;;;7.29;55.88
35918;BME280;22011;59.912;30.300;2023-10-09T11:52:56;100605.25;;;7.42;56.67
35918;BME280;22011;59.912;30.300;2023-10-09T11:55:37;100622.03;;;7.33;56.30
35918;BME280;22011;59.912;30.300;2023-10-09T11:58:05;100605.16;;;7.34;56.67
35918;BME280;22011;59.912;30.300;2023-10-09T12:00:35;100611.03;;;7.28;54.40
35918;BME280;22011;59.912;30.300;2023-10-09T12:03:12;100607.25;;;7.31;55.38
35918;BME280;22011;59.912;30.300;2023-10-09T12:05:40;100605.09;;;7.26;55.84
35918;BME280;22011;59.912;30.300;2023-10-09T12:08:11;100606.81;;;7.35;55.45
35918;BME280;22011;59.912;30.300;2023-10-09T12:10:42;100610.25;;;7.45;54.86
35918;BME280;22011;59.912;30.300;2023-10-09T12:13:11;100610.84;;;7.39;54.36
35918;BME280;22011;59.912;30.300;2023-10-09T12:15:41;100609.19;;;7.38;54.93
35918;BME280;22011;59.912;30.300;2023-10-09T12:18:12;100607.50;;;7.37;55.20
35918;BME280;22011;59.912;30.300;2023-10-09T12:20:42;100600.84;;;7.33;54.32
35918;BME280;22011;59.912;30.300;2023-10-09T12:23:16;100606.13;;;7.33;53.75
35918;BME280;22011;59.912;30.300;2023-10-09T12:25:44;100608.19;;;7.39;54.38
35918;BME280;22011;59.912;30.300;2023-10-09T12:28:14;100608.88;;;7.41;54.04
35918;BME280;22011;59.912;30.300;2023-10-09T12:30:41;100613.34;;;7.41;54.93
35918;BME280;22011;59.912;30.300;2023-10-09T12:33:09;100610.16;;;7.37;54.78
35918;BME280;22011;59.912;30.300;2023-10-09T12:35:39;100612.22;;;7.43;54.61
35918;BME280;22011;59.912;30.300;2023-10-09T12:38:07;100615.00;;;7.42;54.75
35918;BME280;22011;59.912;30.300;2023-10-09T12:40:39;100613.53;;;7.30;55.10
35918;BME280;22011;59.912;30.300;2023-10-09T12:43:07;100614.72;;;7.27;55.04
35918;BME280;22011;59.912;30.300;2023-10-09T12:45:45;100621.00;;;7.26;55.25
35918;BME280;22011;59.912;30.300;2023-10-09T12:48:13;100616.81;;;7.24;55.10
35918;BME280;22011;59.912;30.300;2023-10-09T12:50:41;100617.03;;;7.30;55.58
35918;BME280;22011;59.912;30.300;2023-10-09T12:53:11;100623.03;;;7.32;54.69
35918;BME280;22011;59.912;30.300;2023-10-09T12:55:43;100615.38;;;7.29;54.39
35918;BME280;22011;59.912;30.300;2023-10-09T12:58:12;100614.53;;;7.29;53.99
35918;BME280;22011;59.912;30.300;2023-10-09T13:00:43;100628.69;;;7.65;54.94
35918;BME280;22011;59.912;30.300;2023-10-09T13:03:16;100617.03;;;7.30;55.33
35918;BME280;22011;59.912;30.300;2023-10-09T13:05:45;100625.97;;;7.29;55.20
35918;BME280;22011;59.912;30.300;2023-10-09T13:08:20;100619.47;;;7.24;54.75
35918;BME280;22011;59.912;30.300;2023-10-09T13:10:50;100620.75;;;7.19;55.16
35918;BME280;22011;59.912;30.300;2023-10-09T13:13:27;100630.50;;;7.19;55.07
35918;BME280;22011;59.912;30.300;2023-10-09T13:16:10;100628.59;;;7.11;55.54
35918;BME280;22011;59.912;30.300;2023-10-09T13:18:49;100620.25;;;7.06;55.00
35918;BME280;22011;59.912;30.300;2023-10-09T13:21:19;100622.22;;;7.49;55.75
35918;BME280;22011;59.912;30.300;2023-10-09T13:23:47;100625.91;;;7.21;55.02
35918;BME280;22011;59.912;30.300;2023-10-09T13:26:16;100623.00;;;7.14;55.45
35918;BME280;22011;59.912;30.300;2023-10-09T13:28:51;100628.03;;;7.08;55.64
35918;BME280;22011;59.912;30.300;2023-10-09T13:31:22;100626.38;;;7.07;56.54
35918;BME280;22011;59.912;30.300;2023-10-09T13:33:52;100630.34;;;6.93;56.52
35918;BME280;22011;59.912;30.300;2023-10-09T13:36:22;100632.88;;;6.85;56.83